Time;durP1;ratioP1;P1;durP2;ratioP2;P2;SDS_P1;SDS_P2;PMS_P1;PMS_P2;Temp;Humidity;BMP_temperature;BMP_pressure;BME280_temperature;BME280_humidity;BME280_pressure;Samples;Min_cycle;Max_cycle;Signal;HPM_P1;HPM_P2
2022/09/03 00:01:23;;;;;;;1.77;0.80;;;;;;;16.67;55.23;98311.06;5024233;28;20037;-70
2022/09/03 00:03:56;;;;;;;1.73;0.85;;;;;;;16.73;54.69;98310.84;5033765;28;20028;-70
2022/09/03 00:06:37;;;;;;;4.07;0.80;;;;;;;16.63;56.14;98305.25;5016898;28;20025;-70
2022/09/03 00:09:11;;;;;;;2.90;0.88;;;;;;;16.57;55.64;98300.81;5031821;28;20091;-70
2022/09/03 00:11:52;;;;;;;1.35;0.70;;;;;;;16.70;55.71;98300.44;5033249;28;20487;-70
2022/09/03 00:14:26;;;;;;;0.80;0.80;;;;;;;16.70;55.25;98294.97;5033077;28;20038;-70
2022/09/03 00:16:59;;;;;;;4.40;0.75;;;;;;;16.81;54.71;98309.59;5031045;28;20287;-70
2022/09/03 00:19:30;;;;;;;2.67;0.70;;;;;;;16.64;55.41;98299.56;5012468;28;20087;-69
2022/09/03 00:22:09;;;;;;;2.70;0.77;;;;;;;16.61;56.30;98302.78;5033316;28;20033;-70
2022/09/03 00:24:38;;;;;;;2.75;0.90;;;;;;;16.54;55.44;98291.22;5032870;28;20356;-70
2022/09/03 00:27:10;;;;;;;1.65;0.63;;;;;;;16.57;56.13;98300.81;5033346;28;20069;-70
2022/09/03 00:29:46;;;;;;;1.45;0.65;;;;;;;16.58;55.50;98303.31;5020045;28;20037;-70
2022/09/03 00:32:19;;;;;;;2.35;0.70;;;;;;;16.42;55.88;98282.34;5032330;28;20022;-70
2022/09/03 00:34:49;;;;;;;1.23;0.68;;;;;;;16.61;55.68;98302.78;5035462;28;20116;-70
2022/09/03 00:37:15;;;;;;;3.30;0.85;;;;;;;16.56;55.48;98283.63;5030418;28;20112;-70
2022/09/03 00:39:40;;;;;;;3.30;0.90;;;;;;;16.69;55.69;98296.06;5035897;28;20502;-70
2022/09/03 00:42:28;;;;;;;1.40;0.80;;;;;;;16.77;55.00;98301.09;5032757;28;20029;-70
2022/09/03 00:45:17;;;;;;;1.38;0.68;;;;;;;16.59;55.08;98271.34;5029843;28;20030;-70
2022/09/03 00:48:17;;;;;;;1.60;0.63;;;;;;;16.63;55.11;98299.78;5035537;28;20032;-70
2022/09/03 00:50:54;;;;;;;3.53;0.70;;;;;;;16.61;55.60;98296.47;5031359;28;20025;-69
2022/09/03 00:53:52;;;;;;;2.58;0.80;;;;;;;16.80;54.63;98306.03;5033018;28;20037;-70
2022/09/03 00:57:10;;;;;;;1.60;0.77;;;;;;;16.82;54.93;98303.03;5031764;28;20033;-70
2022/09/03 00:59:51;;;;;;;2.38;0.57;;;;;;;16.63;54.75;98283.41;5023992;28;20041;-70
2022/09/03 01:02:34;;;;;;;3.50;0.63;;;;;;;16.53;55.13;98281.41;5037268;28;20101;-70
2022/09/03 01:05:36;;;;;;;1.15;0.90;;;;;;;16.61;55.36;98299.22;5033302;28;20030;-70
2022/09/03 01:08:23;;;;;;;0.77;0.70;;;;;;;16.66;55.79;98293.81;5030163;28;20033;-70
2022/09/03 01:11:06;;;;;;;3.80;0.80;;;;;;;16.71;54.98;98282.13;5027221;28;20078;-70
2022/09/03 01:13:41;;;;;;;1.58;0.70;;;;;;;16.77;55.52;98292.91;5031434;28;20041;-70
2022/09/03 01:16:25;;;;;;;1.50;0.68;;;;;;;16.75;55.15;98297.75;5031793;28;20437;-70
2022/09/03 01:18:57;;;;;;;1.92;0.70;;;;;;;16.91;54.88;98303.44;5036517;28;20025;-70
2022/09/03 01:21:33;;;;;;;1.17;0.70;;;;;;;17.06;54.50;98295.41;5031520;28;20022;-70
2022/09/03 01:24:17;;;;;;;2.60;0.65;;;;;;;17.02;54.47;98295.06;5029796;28;20033;-70
2022/09/03 01:27:04;;;;;;;1.08;0.60;;;;;;;17.05;54.61;98293.72;5033606;28;20021;-70
2022/09/03 01:29:48;;;;;;;1.73;0.80;;;;;;;16.89;54.86;98284.53;5030175;28;20036;-70
2022/09/03 01:32:30;;;;;;;3.60;1.00;;;;;;;16.98;54.86;98295.88;5009327;28;20017;-70
2022/09/03 01:35:35;;;;;;;3.80;0.85;;;;;;;17.14;54.72;98294.94;5007335;28;20040;-69
2022/09/03 01:38:13;;;;;;;1.95;0.80;;;;;;;17.12;54.56;98297.09;5019152;28;20035;-70
2022/09/03 01:40:47;;;;;;;5.35;0.80;;;;;;;17.18;54.75;98297.97;5025291;28;20120;-70
2022/09/03 01:43:35;;;;;;;1.15;0.80;;;;;;;17.12;55.09;98294.34;5032205;28;20367;-69
2022/09/03 01:46:13;;;;;;;2.45;0.88;;;;;;;17.16;54.89;98292.75;5025800;28;20479;-70
2022/09/03 01:48:55;;;;;;;1.70;1.08;;;;;;;17.24;54.31;98295.03;5029125;28;20033;-70
2022/09/03 01:51:26;;;;;;;2.97;0.90;;;;;;;17.36;53.95;98291.28;5030405;28;20028;-70
2022/09/03 01:54:29;;;;;;;1.52;0.82;;;;;;;17.28;54.59;98298.88;5015226;28;20029;-70
2022/09/03 01:57:24;;;;;;;1.73;1.05;;;;;;;17.24;54.26;98300.50;5026816;28;20059;-70
2022/09/03 02:00:04;;;;;;;2.53;0.57;;;;;;;17.20;54.68;98295.78;5028797;28;20108;-70
2022/09/03 02:02:30;;;;;;;0.95;0.70;;;;;;;17.11;55.15;98292.72;5028094;28;20022;-71
2022/09/03 02:04:58;;;;;;;4.05;0.70;;;;;;;17.22;55.04;98299.09;5028120;28;20044;-70
2022/09/03 02:07:27;;;;;;;1.48;0.70;;;;;;;17.09;55.34;98292.97;5029675;28;20029;-70
2022/09/03 02:09:52;;;;;;;2.13;0.70;;;;;;;17.11;55.42;98300.91;5031224;28;20383;-71
2022/09/03 02:12:19;;;;;;;1.00;0.60;;;;;;;17.08;55.80;98282.28;5029505;28;20029;-71
2022/09/03 02:14:45;;;;;;;1.95;0.75;;;;;;;17.17;55.74;98310.81;5028404;28;20026;-70
2022/09/03 02:17:11;;;;;;;2.10;0.70;;;;;;;17.01;55.67;98304.34;5009082;28;20029;-70
2022/09/03 02:19:38;;;;;;;1.90;0.82;;;;;;;17.00;56.67;98323.75;5029835;28;20034;-70
2022/09/03 02:22:04;;;;;;;3.50;0.80;;;;;;;16.94;56.22;98297.44;5031052;28;20030;-70
2022/09/03 02:24:29;;;;;;;3.60;0.90;;;;;;;17.14;55.39;98315.97;5010704;28;20056;-70
2022/09/03 02:26:55;;;;;;;1.45;0.82;;;;;;;17.13;55.16;98289.72;5033930;28;20069;-70
2022/09/03 02:29:21;;;;;;;1.67;0.90;;;;;;;17.16;55.53;98298.22;5030415;28;20029;-70
2022/09/03 02:31:47;;;;;;;1.67;0.90;;;;;;;17.33;55.38;98302.75;5028868;28;20029;-69
2022/09/03 02:34:12;;;;;;;1.42;0.70;;;;;;;17.30;55.31;98304.91;5028396;28;20029;-70
2022/09/03 02:36:44;;;;;;;3.33;0.80;;;;;;;17.38;54.93;98308.28;5028007;28;20088;-70
2022/09/03 02:39:10;;;;;;;1.85;0.80;;;;;;;17.29;54.97;98303.28;5025066;28;20124;-70
2022/09/03 02:41:35;;;;;;;2.92;0.70;;;;;;;17.30;55.34;98313.13;5031131;28;20550;-70
2022/09/03 02:44:24;;;;;;;3.53;0.75;;;;;;;17.25;55.65;98318.53;5032065;28;20018;-70
2022/09/03 02:46:52;;;;;;;;;;;;;;;17.24;55.45;98327.84;5026713;28;20030;-70
2022/09/03 02:49:18;;;;;;;3.22;1.00;;;;;;;17.17;55.98;98320.91;5028868;28;19937;-70
2022/09/03 02:51:43;;;;;;;5.45;0.80;;;;;;;16.95;56.76;98299.09;5039334;28;20022;-69
2022/09/03 02:54:10;;;;;;;0.60;0.60;;;;;;;16.97;57.24;98307.84;5110737;22;20146;-73
2022/09/03 02:56:36;;;;;;;1.17;0.80;;;;;;;16.93;56.51;98298.53;5045103;28;20532;-76
2022/09/03 02:59:04;;;;;;;5.20;0.80;;;;;;;17.07;56.30;98294.31;5045977;28;20029;-73
2022/09/03 03:01:29;;;;;;;1.38;0.85;;;;;;;17.14;56.10;98303.13;5048951;28;20032;-74
2022/09/03 03:03:55;;;;;;;1.10;0.80;;;;;;;17.02;56.60;98283.31;5044090;28;20434;-73
2022/09/03 03:06:20;;;;;;;5.78;0.80;;;;;;;17.00;56.57;98293.66;5045076;28;20029;-73
2022/09/03 03:08:47;;;;;;;3.00;0.90;;;;;;;17.04;56.84;98301.09;5050351;28;20417;-73
2022/09/03 03:11:17;;;;;;;1.98;0.75;;;;;;;17.08;56.04;98306.88;5045408;28;20390;-73
2022/09/03 03:13:43;;;;;;;1.50;1.00;;;;;;;17.02;56.60;98302.44;5037450;28;20029;-73
2022/09/03 03:16:09;;;;;;;3.60;0.90;;;;;;;16.88;56.91;98293.03;5045250;28;20025;-73
2022/09/03 03:18:34;;;;;;;4.88;1.00;;;;;;;16.73;57.06;98278.06;5050101;28;20043;-73
2022/09/03 03:21:08;;;;;;;2.45;0.73;;;;;;;16.80;58.14;98300.59;5047388;28;20036;-73
2022/09/03 03:23:35;;;;;;;1.23;0.82;;;;;;;16.64;58.46;98282.34;5047020;28;20074;-73
2022/09/03 03:26:05;;;;;;;1.17;0.73;;;;;;;16.84;57.88;98295.41;5029983;28;20036;-74
2022/09/03 03:28:33;;;;;;;4.10;0.82;;;;;;;16.73;58.27;98283.53;5046193;28;20052;-73
2022/09/03 03:31:11;;;;;;;3.08;1.10;;;;;;;16.79;57.94;98306.28;5049169;28;20079;-73
2022/09/03 03:33:38;;;;;;;2.00;0.80;;;;;;;16.84;57.66;98317.28;5049368;28;20082;-73
2022/09/03 03:36:14;;;;;;;3.13;0.90;;;;;;;16.90;57.56;98316.28;5048403;28;20032;-74
2022/09/03 03:38:41;;;;;;;3.40;0.80;;;;;;;16.95;57.65;98318.22;5048338;28;20079;-75
2022/09/03 03:41:16;;;;;;;1.40;0.88;;;;;;;17.04;57.03;98313.94;5037556;28;20040;-72
2022/09/03 03:43:42;;;;;;;0.90;0.70;;;;;;;17.05;56.91;98312.84;5042150;28;20177;-73
2022/09/03 03:46:07;;;;;;;2.20;1.00;;;;;;;17.08;56.46;98310.47;5048394;28;20526;-75
2022/09/03 03:48:33;;;;;;;2.60;0.80;;;;;;;17.16;56.71;98324.72;5027173;28;20441;-76
2022/09/03 03:51:03;;;;;;;2.65;0.80;;;;;;;17.25;56.58;98310.34;5043259;28;20099;-75
2022/09/03 03:53:29;;;;;;;1.15;0.70;;;;;;;17.23;56.53;98319.88;5040182;28;20029;-73
2022/09/03 03:55:57;;;;;;;2.95;0.90;;;;;;;17.06;57.10;98320.81;5050723;28;20040;-73
2022/09/03 03:58:22;;;;;;;4.65;0.75;;;;;;;17.00;57.31;98321.84;5029882;28;20053;-73
2022/09/03 04:00:49;;;;;;;1.63;0.75;;;;;;;16.91;57.39;98301.53;5047430;28;20060;-74
2022/09/03 04:03:14;;;;;;;1.10;1.00;;;;;;;17.00;57.35;98321.00;5049638;28;20079;-74
2022/09/03 04:05:39;;;;;;;1.65;0.90;;;;;;;17.02;57.16;98302.44;5049206;28;20419;-73
2022/09/03 04:08:05;;;;;;;2.33;0.80;;;;;;;17.21;57.03;98322.88;5044051;28;20029;-73
2022/09/03 04:10:31;;;;;;;2.53;1.08;;;;;;;17.25;56.69;98324.00;5054359;28;20024;-74
2022/09/03 04:12:56;;;;;;;1.38;0.82;;;;;;;17.17;56.74;98310.81;5039411;28;20430;-73
2022/09/03 04:15:21;;;;;;;1.50;0.90;;;;;;;17.15;56.51;98296.56;5043570;28;20025;-74
2022/09/03 04:17:47;;;;;;;3.58;1.00;;;;;;;17.24;56.74;98318.81;5046974;28;20021;-73
2022/09/03 04:20:12;;;;;;;3.80;0.90;;;;;;;17.19;56.71;98302.38;5046873;28;20028;-74
2022/09/03 04:22:37;;;;;;;3.15;0.90;;;;;;;17.14;56.86;98299.56;5030044;28;20017;-73
2022/09/03 04:25:03;;;;;;;3.00;1.00;;;;;;;17.16;57.17;98311.91;5045888;28;20025;-76
2022/09/03 04:27:28;;;;;;;1.77;0.80;;;;;;;17.24;57.29;98316.09;5031858;28;20138;-71
2022/09/03 04:29:54;;;;;;;1.58;0.88;;;;;;;17.29;56.94;98306.00;5043726;28;20043;-71
2022/09/03 04:35:03;;;;;;;1.77;0.90;;;;;;;17.21;56.94;98279.16;5040303;28;20125;-75
2022/09/03 04:37:29;;;;;;;1.83;1.15;;;;;;;17.16;57.28;98292.75;5027180;28;20108;-75
2022/09/03 04:39:54;;;;;;;4.13;1.10;;;;;;;17.19;57.38;98302.38;5046238;28;20144;-75
2022/09/03 04:42:20;;;;;;;2.90;0.90;;;;;;;17.14;58.13;98318.72;5034066;28;20029;-75
2022/09/03 04:44:45;;;;;;;1.13;0.80;;;;;;;16.99;58.72;98319.38;5045096;28;20025;-75
2022/09/03 04:47:11;;;;;;;2.30;0.80;;;;;;;16.90;59.21;98319.00;5048086;28;20024;-75
2022/09/03 04:49:36;;;;;;;2.38;0.90;;;;;;;16.84;59.56;98329.03;5045143;28;20048;-75
2022/09/03 04:52:02;;;;;;;1.10;1.00;;;;;;;16.72;59.94;98317.41;5041063;28;20022;-75
2022/09/03 04:54:27;;;;;;;1.55;1.00;;;;;;;16.64;60.41;98301.47;5046624;28;20043;-74
2022/09/03 04:56:53;;;;;;;2.80;0.90;;;;;;;16.64;60.10;98307.75;5042822;28;20104;-76
2022/09/03 04:59:18;;;;;;;1.55;0.88;;;;;;;16.74;60.66;98323.44;5043100;28;20120;-76
2022/09/03 05:01:43;;;;;;;2.75;1.10;;;;;;;16.88;59.69;98334.00;5044463;28;20535;-75
2022/09/03 05:04:08;;;;;;;1.27;1.00;;;;;;;16.94;58.60;98300.19;5036858;28;20451;-76
2022/09/03 05:06:36;;;;;;;1.88;0.98;;;;;;;17.13;58.37;98315.13;5024845;28;20032;-76
2022/09/03 05:09:02;;;;;;;0.82;0.80;;;;;;;17.12;58.30;98318.97;5048657;28;20025;-74
2022/09/03 05:11:28;;;;;;;1.83;1.00;;;;;;;17.19;58.61;98321.50;5041012;28;20099;-76
2022/09/03 05:13:56;;;;;;;1.25;1.02;;;;;;;17.14;58.77;98315.97;5041202;28;20030;-76
2022/09/03 05:16:23;;;;;;;1.95;1.10;;;;;;;17.23;58.31;98334.38;5038946;28;20033;-76
2022/09/03 05:18:52;;;;;;;1.52;0.95;;;;;;;17.34;58.41;98327.09;5043848;28;20025;-72
2022/09/03 05:21:18;;;;;;;1.30;1.10;;;;;;;17.36;57.71;98313.16;5030750;28;20052;-72
2022/09/03 05:23:46;;;;;;;2.08;1.00;;;;;;;17.55;57.91;98335.47;5043938;28;20447;-73
2022/09/03 05:26:20;;;;;;;4.43;1.10;;;;;;;17.50;58.08;98336.25;5046495;28;20025;-74
2022/09/03 05:28:46;;;;;;;2.95;1.13;;;;;;;17.41;58.40;98337.81;5040008;28;20033;-74
2022/09/03 05:31:15;;;;;;;2.08;1.20;;;;;;;17.24;58.66;98336.03;5048193;28;20032;-74
2022/09/03 05:33:43;;;;;;;0.98;0.70;;;;;;;17.29;58.87;98337.97;5041085;28;20024;-76
2022/09/03 05:36:11;;;;;;;1.42;0.88;;;;;;;17.26;59.34;98338.50;5051502;28;20613;-78
2022/09/03 05:38:36;;;;;;;2.60;1.05;;;;;;;17.35;59.20;98336.13;5046936;28;20022;-78
2022/09/03 05:41:04;;;;;;;1.20;0.93;;;;;;;17.33;59.35;98335.56;5038471;28;20032;-73
2022/09/03 05:43:30;;;;;;;2.00;0.82;;;;;;;17.44;59.26;98334.56;5041748;28;20036;-74
2022/09/03 05:46:07;;;;;;;1.33;0.90;;;;;;;17.53;58.75;98341.22;5027978;28;20053;-74
2022/09/03 05:48:34;;;;;;;1.48;1.08;;;;;;;17.81;57.97;98326.44;5046505;28;20037;-74
2022/09/03 05:51:01;;;;;;;3.28;0.98;;;;;;;17.96;57.42;98326.53;5048152;28;20104;-74
2022/09/03 05:53:28;;;;;;;1.20;0.80;;;;;;;17.87;57.76;98333.59;5041038;28;20028;-74
2022/09/03 05:55:57;;;;;;;2.08;1.02;;;;;;;17.95;57.55;98333.13;5033102;28;20025;-74
2022/09/03 05:58:24;;;;;;;1.13;0.88;;;;;;;18.14;56.91;98327.22;5041919;28;20148;-73
2022/09/03 06:00:50;;;;;;;7.38;1.33;;;;;;;18.39;56.75;98342.94;5022926;28;20029;-74
2022/09/03 06:03:15;;;;;;;2.95;1.38;;;;;;;18.47;56.68;98347.94;5043075;28;20051;-73
2022/09/03 06:05:49;;;;;;;1.10;0.73;;;;;;;18.65;55.83;98354.88;5039282;28;20482;-74
2022/09/03 06:08:14;;;;;;;1.73;1.00;;;;;;;18.89;55.24;98347.06;5041853;28;20047;-74
2022/09/03 06:10:39;;;;;;;2.80;1.20;;;;;;;19.14;55.37;98337.25;5038440;28;20803;-74
2022/09/03 06:13:04;;;;;;;2.25;0.90;;;;;;;21.09;49.98;98330.44;5041521;28;20024;-74
2022/09/03 06:15:30;;;;;;;1.92;1.00;;;;;;;22.69;46.19;98323.31;5038734;28;20399;-75
2022/09/03 06:17:55;;;;;;;3.05;1.23;;;;;;;21.56;47.93;98326.31;5022031;28;20121;-73
2022/09/03 06:20:21;;;;;;;2.33;1.10;;;;;;;20.94;49.55;98331.34;5043578;28;20039;-73
2022/09/03 06:22:51;;;;;;;1.80;1.10;;;;;;;20.54;50.80;98351.56;5042300;28;20063;-74
2022/09/03 06:25:18;;;;;;;2.95;1.10;;;;;;;19.62;52.90;98348.84;5039780;28;20029;-74
2022/09/03 06:27:43;;;;;;;4.32;1.08;;;;;;;19.82;53.07;98359.88;5038230;28;20021;-74
2022/09/03 06:30:09;;;;;;;4.50;1.35;;;;;;;19.70;53.36;98351.94;5025895;28;20071;-74
2022/09/03 06:32:42;;;;;;;3.05;1.23;;;;;;;19.84;53.46;98360.44;5038559;28;20435;-73
2022/09/03 06:35:08;;;;;;;2.58;0.88;;;;;;;19.91;53.40;98341.78;5042140;28;20028;-74
2022/09/03 06:37:39;;;;;;;1.90;0.98;;;;;;;20.25;52.41;98357.66;5037958;28;20039;-74
2022/09/03 06:40:07;;;;;;;1.38;1.00;;;;;;;20.40;52.29;98366.97;5042702;28;20052;-74
2022/09/03 06:42:33;;;;;;;2.28;1.20;;;;;;;20.72;51.01;98361.13;5039144;28;20037;-75
2022/09/03 06:44:58;;;;;;;2.63;1.20;;;;;;;20.58;51.67;98349.91;5046372;28;20028;-77
2022/09/03 06:47:23;;;;;;;3.42;1.23;;;;;;;20.46;52.00;98352.09;5047526;28;20100;-76
2022/09/03 06:49:49;;;;;;;3.83;1.30;;;;;;;20.49;52.78;98354.31;5027159;28;20400;-75
2022/09/03 06:52:14;;;;;;;2.13;1.33;;;;;;;20.36;52.29;98355.72;5049773;28;20025;-76
2022/09/03 06:54:39;;;;;;;2.22;1.33;;;;;;;20.26;53.31;98356.53;5043810;28;20114;-74
2022/09/03 06:57:05;;;;;;;2.88;1.40;;;;;;;20.00;53.77;98368.66;5037487;28;20026;-70
2022/09/03 06:59:30;;;;;;;1.67;1.02;;;;;;;19.87;54.30;98350.81;5040823;28;20087;-70
2022/09/03 07:01:57;;;;;;;1.98;1.17;;;;;;;19.75;55.07;98353.81;5045858;28;20074;-70
2022/09/03 07:04:23;;;;;;;2.45;1.08;;;;;;;19.59;57.06;98346.66;5046560;28;20548;-72
2022/09/03 07:06:49;;;;;;;3.25;1.20;;;;;;;19.72;58.26;98370.84;5045218;28;20068;-72
2022/09/03 07:09:17;;;;;;;4.70;1.08;;;;;;;19.63;60.09;98373.28;5039996;28;21042;-74
2022/09/03 07:11:45;;;;;;;2.63;1.27;;;;;;;19.61;57.28;98369.16;5033752;28;20433;-77
2022/09/03 07:14:12;;;;;;;3.65;1.20;;;;;;;19.54;57.86;98371.34;5042772;28;20098;-78
2022/09/03 07:16:37;;;;;;;2.63;1.00;;;;;;;19.44;58.16;98358.44;5041616;28;20033;-78
2022/09/03 07:19:07;;;;;;;2.20;1.40;;;;;;;19.46;57.59;98362.56;5020920;28;20090;-72
2022/09/03 07:21:37;;;;;;;1.55;1.15;;;;;;;19.63;57.65;98366.97;5043882;28;20022;-71
2022/09/03 07:24:04;;;;;;;2.17;1.25;;;;;;;19.61;57.19;98360.94;5048945;28;20038;-80
2022/09/03 07:26:32;;;;;;;2.78;1.38;;;;;;;19.73;57.04;98372.50;5020907;28;20033;-77
2022/09/03 07:28:59;;;;;;;2.05;1.40;;;;;;;19.86;56.21;98343.69;5021732;28;20051;-77
2022/09/03 07:31:28;;;;;;;3.22;1.25;;;;;;;20.23;56.19;98364.53;5031691;28;20117;-77
2022/09/03 07:33:54;;;;;;;3.33;1.00;;;;;;;20.56;55.36;98368.59;5053376;28;20024;-79
2022/09/03 07:36:21;;;;;;;1.50;1.08;;;;;;;20.99;54.91;98371.75;5053988;28;20394;-79
2022/09/03 07:38:46;;;;;;;3.58;1.40;;;;;;;21.01;53.36;98355.75;5062044;28;20029;-79
2022/09/03 07:41:13;;;;;;;4.38;1.35;;;;;;;21.99;51.35;98376.06;5049985;28;20435;-77
2022/09/03 07:43:45;;;;;;;2.95;1.30;;;;;;;23.26;48.82;98367.53;5026549;28;20417;-77
2022/09/03 07:46:12;;;;;;;2.65;1.40;;;;;;;24.54;45.90;98365.50;5054503;28;20052;-77
2022/09/03 07:48:42;;;;;;;3.30;1.42;;;;;;;24.33;45.80;98367.81;5045581;28;20397;-78
2022/09/03 07:51:07;;;;;;;;;;;;;;;24.50;44.90;98372.81;5030060;28;20060;-77
2022/09/03 07:53:33;;;;;;;1.85;1.33;;;;;;;23.87;46.32;98376.91;5049269;28;19920;-76
2022/09/03 07:56:06;;;;;;;2.30;1.27;;;;;;;23.53;47.20;98364.13;5048653;28;20025;-76
2022/09/03 07:58:33;;;;;;;3.70;1.38;;;;;;;23.11;48.14;98365.03;5052922;28;20024;-77
2022/09/03 08:01:04;;;;;;;3.50;1.25;;;;;;;23.17;48.46;98369.34;5054303;28;20071;-78
2022/09/03 08:03:30;;;;;;;2.55;1.20;;;;;;;23.29;47.72;98366.97;5033289;28;20029;-77
2022/09/03 08:06:00;;;;;;;2.83;1.23;;;;;;;23.16;48.26;98381.47;5052114;28;20079;-77
2022/09/03 08:08:26;;;;;;;2.08;1.20;;;;;;;23.05;48.83;98391.00;5034876;28;20028;-77
2022/09/03 08:10:51;;;;;;;3.28;1.10;;;;;;;22.88;49.00;98373.00;5033635;28;20021;-76
2022/09/03 08:13:17;;;;;;;3.38;1.25;;;;;;;23.38;48.53;98390.03;5065026;28;20084;-71
2022/09/03 08:15:42;;;;;;;8.85;1.67;;;;;;;23.43;48.43;98391.91;5057763;28;20029;-72
2022/09/03 08:18:08;;;;;;;2.67;1.60;;;;;;;23.08;49.10;98383.00;5044038;28;20017;-72
2022/09/03 08:20:36;;;;;;;2.03;1.30;;;;;;;22.71;49.60;98397.44;5055087;28;20028;-72
2022/09/03 08:23:01;;;;;;;3.75;1.30;;;;;;;22.56;50.50;98408.63;5060734;28;20487;-72
2022/09/03 08:25:28;;;;;;;2.30;1.38;;;;;;;22.69;50.25;98402.47;5062411;28;20037;-72
2022/09/03 08:27:56;;;;;;;2.10;1.52;;;;;;;22.83;49.95;98381.31;5051364;28;20048;-72
2022/09/03 08:30:23;;;;;;;3.07;1.73;;;;;;;23.04;49.29;98376.41;5043562;28;20029;-69
2022/09/03 08:32:49;;;;;;;4.40;1.33;;;;;;;23.70;48.46;98391.22;5044275;28;20066;-73
2022/09/03 08:35:14;;;;;;;2.30;1.73;;;;;;;23.95;47.66;98384.50;5043377;28;20547;-72
2022/09/03 08:37:40;;;;;;;1.92;1.58;;;;;;;24.51;46.65;98396.56;5046047;28;20048;-74
2022/09/03 08:40:06;;;;;;;2.22;1.52;;;;;;;24.78;46.07;98401.28;5049359;28;20086;-73
2022/09/03 08:42:37;;;;;;;2.13;1.40;;;;;;;25.29;44.78;98396.69;5048089;28;20078;-73
2022/09/03 08:45:09;;;;;;;2.78;1.30;;;;;;;25.97;44.45;98392.13;5046177;28;20024;-72
2022/09/03 08:47:34;;;;;;;4.57;1.40;;;;;;;25.61;44.45;98395.69;5048554;28;20032;-73
2022/09/03 08:50:26;;;;;;;2.27;1.37;;;;;;;25.14;45.04;98409.69;5047998;28;20047;-74
2022/09/03 08:53:08;;;;;;;2.88;1.52;;;;;;;25.11;45.49;98412.28;5046489;28;20429;-74
2022/09/03 08:55:50;;;;;;;1.90;1.30;;;;;;;25.52;44.32;98403.94;5063258;22;20101;-70
2022/09/03 08:58:17;;;;;;;3.20;1.40;;;;;;;24.76;45.33;98413.78;4995029;28;20048;-69
2022/09/03 09:01:01;;;;;;;1.60;1.30;;;;;;;24.33;47.09;98419.53;4992284;28;20029;-70
2022/09/03 09:03:47;;;;;;;1.70;1.27;;;;;;;23.80;48.30;98427.00;4989418;28;20034;-69
2022/09/03 09:06:19;;;;;;;2.45;1.38;;;;;;;23.66;48.91;98422.47;4976986;28;20105;-70
2022/09/03 09:09:10;;;;;;;2.40;1.58;;;;;;;23.32;49.94;98427.09;4972048;28;20492;-70
2022/09/03 09:12:12;;;;;;;2.38;1.60;;;;;;;22.80;51.70;98431.56;4975923;28;20391;-72
2022/09/03 09:15:04;;;;;;;2.50;1.58;;;;;;;22.13;53.67;98425.00;4969301;28;20023;-75
2022/09/03 09:17:44;;;;;;;5.03;1.73;;;;;;;21.97;56.71;98438.88;4973870;28;20027;-68
2022/09/03 09:20:37;;;;;;;4.22;1.63;;;;;;;21.89;57.96;98420.22;4973460;28;20117;-69
2022/09/03 09:23:05;;;;;;;3.00;1.85;;;;;;;22.05;57.28;98443.78;4975880;28;20034;-67
2022/09/03 09:25:38;;;;;;;2.80;1.60;;;;;;;22.21;57.25;98443.69;4978164;28;20023;-71
2022/09/03 09:28:21;;;;;;;5.07;1.52;;;;;;;22.16;56.63;98444.53;4969129;28;20034;-70
2022/09/03 09:30:48;;;;;;;4.32;1.50;;;;;;;22.48;55.11;98441.25;4969089;28;20118;-72
2022/09/03 09:33:15;;;;;;;3.40;2.00;;;;;;;22.61;54.00;98442.53;4976954;28;20035;-71
2022/09/03 09:35:42;;;;;;;3.13;1.83;;;;;;;22.96;53.32;98444.09;4980617;28;20372;-69
2022/09/03 09:38:08;;;;;;;2.88;1.50;;;;;;;23.09;52.21;98448.09;4973595;28;20499;-69
2022/09/03 09:40:37;;;;;;;2.53;1.77;;;;;;;23.90;51.36;98445.38;4956856;28;20034;-70
2022/09/03 09:43:18;;;;;;;2.78;1.48;;;;;;;25.40;47.81;98436.06;4966340;28;20026;-70
2022/09/03 09:45:48;;;;;;;2.13;1.48;;;;;;;26.66;44.76;98427.81;4982897;28;20102;-69
2022/09/03 09:48:32;;;;;;;2.13;1.70;;;;;;;28.29;41.48;98427.69;4972356;28;20039;-68
2022/09/03 09:51:33;;;;;;;1.70;1.20;;;;;;;28.38;41.36;98416.56;4964965;28;20023;-68
2022/09/03 09:54:01;;;;;;;2.15;1.20;;;;;;;28.06;41.85;98421.50;4873103;29;20490;-69
2022/09/03 09:56:26;;;;;;;3.72;1.48;;;;;;;28.26;41.35;98416.41;4950553;28;20050;-69
2022/09/03 09:59:03;;;;;;;5.60;1.23;;;;;;;29.35;39.98;98418.69;4979712;28;20034;-69
2022/09/03 10:01:30;;;;;;;4.13;1.65;;;;;;;29.72;38.82;98401.41;4953252;28;20030;-70
2022/09/03 10:03:58;;;;;;;1.60;1.40;;;;;;;29.99;38.83;98417.59;4968473;28;20515;-70
2022/09/03 10:09:22;;;;;;;1.58;1.15;;;;;;;29.82;39.00;98410.19;4961770;28;20401;-69
2022/09/03 10:11:54;;;;;;;2.17;1.20;;;;;;;31.02;36.89;98394.50;4977438;28;20019;-69
2022/09/03 10:14:24;;;;;;;1.55;1.35;;;;;;;30.23;37.70;98388.16;4971544;28;20033;-69
2022/09/03 10:16:59;;;;;;;1.45;1.17;;;;;;;30.12;38.10;98387.75;4975978;28;20027;-70
2022/09/03 10:19:39;;;;;;;2.88;1.40;;;;;;;28.38;39.81;98399.88;4970334;28;20838;-69
2022/09/03 10:22:25;;;;;;;3.17;1.48;;;;;;;29.16;39.02;98394.06;4973118;28;20125;-69
2022/09/03 10:24:57;;;;;;;3.42;1.33;;;;;;;29.89;38.61;98396.53;4966741;28;20022;-70
2022/09/03 10:27:23;;;;;;;2.30;1.30;;;;;;;30.04;38.38;98386.69;4971145;28;20038;-69
2022/09/03 10:29:49;;;;;;;2.15;1.30;;;;;;;29.76;38.48;98391.19;4971536;28;20023;-69
2022/09/03 10:32:25;;;;;;;2.05;1.40;;;;;;;30.35;37.98;98386.25;4955673;28;20034;-70
2022/09/03 10:35:07;;;;;;;2.67;1.30;;;;;;;30.82;36.92;98399.06;4973811;28;20388;-70
2022/09/03 10:38:02;;;;;;;1.65;1.25;;;;;;;31.94;35.56;98384.66;4972820;28;20045;-69
2022/09/03 10:41:02;;;;;;;3.03;1.40;;;;;;;32.04;35.12;98386.09;4969195;28;20388;-69
2022/09/03 10:44:10;;;;;;;3.67;1.20;;;;;;;32.75;34.15;98390.09;4962636;28;20034;-70
2022/09/03 10:47:12;;;;;;;3.80;1.00;;;;;;;31.59;34.95;98389.94;4967547;28;20395;-69
2022/09/03 10:49:53;;;;;;;2.63;1.25;;;;;;;30.91;36.65;98390.56;4983192;28;20127;-71
2022/09/03 10:52:50;;;;;;;2.00;1.20;;;;;;;31.00;37.04;98383.69;4971432;28;20105;-70
2022/09/03 10:55:21;;;;;;;3.00;1.27;;;;;;;33.15;34.00;98383.50;4964939;28;20042;-69
2022/09/03 10:57:54;;;;;;;2.97;1.00;;;;;;;34.11;31.43;98375.59;4971021;28;20140;-69
2022/09/03 11:00:21;;;;;;;2.53;1.00;;;;;;;35.96;29.24;98371.44;4956735;28;20039;-70
2022/09/03 11:03:01;;;;;;;1.38;0.98;;;;;;;36.95;28.43;98372.94;4971968;28;20058;-70
2022/09/03 11:05:37;;;;;;;4.38;1.10;;;;;;;37.19;27.95;98375.16;4971007;28;20559;-69
2022/09/03 11:08:11;;;;;;;2.45;1.10;;;;;;;37.65;26.78;98369.03;4955918;28;20031;-70
2022/09/03 11:10:48;;;;;;;2.00;1.40;;;;;;;34.67;30.07;98369.47;4973317;28;20023;-69
2022/09/03 11:13:20;;;;;;;3.38;1.25;;;;;;;34.50;30.39;98358.69;4973230;28;20034;-69
2022/09/03 11:15:58;;;;;;;1.88;1.30;;;;;;;34.49;30.56;98363.50;4974269;28;20030;-70
2022/09/03 11:18:50;;;;;;;2.22;1.20;;;;;;;35.40;29.46;98355.38;4976700;28;20048;-69
2022/09/03 11:21:21;;;;;;;2.20;1.13;;;;;;;34.25;31.69;98350.63;4974629;28;20120;-69
2022/09/03 11:24:12;;;;;;;3.17;1.33;;;;;;;34.56;31.36;98349.59;4969964;28;20061;-66
2022/09/03 11:26:39;;;;;;;2.00;1.27;;;;;;;34.34;30.59;98350.38;4966788;28;20770;-66
2022/09/03 11:29:28;;;;;;;1.75;1.00;;;;;;;32.98;32.16;98351.00;4966302;28;20082;-65
2022/09/03 11:31:58;;;;;;;1.25;1.02;;;;;;;33.53;31.40;98342.69;4973106;28;20504;-65
2022/09/03 11:34:26;;;;;;;1.25;1.10;;;;;;;33.12;31.57;98342.19;4973546;28;20030;-65
2022/09/03 11:37:05;;;;;;;1.80;1.10;;;;;;;32.05;33.38;98341.00;4966288;28;20106;-65
2022/09/03 11:39:30;;;;;;;2.58;1.05;;;;;;;31.81;34.08;98341.06;4968901;28;20039;-65
2022/09/03 11:42:07;;;;;;;1.70;1.25;;;;;;;32.53;33.35;98325.09;4966369;28;20031;-68
2022/09/03 11:44:41;;;;;;;3.50;1.30;;;;;;;32.13;33.68;98333.59;4982121;28;20181;-66
2022/09/03 11:47:22;;;;;;;1.73;1.23;;;;;;;31.85;34.43;98336.38;4972185;28;20383;-65
2022/09/03 11:49:50;;;;;;;1.67;1.17;;;;;;;30.85;35.81;98333.31;4967007;28;20408;-67
2022/09/03 11:52:28;;;;;;;1.80;1.23;;;;;;;30.20;35.96;98333.84;4976351;28;20030;-65
2022/09/03 11:54:54;;;;;;;3.08;1.40;;;;;;;29.66;37.28;98336.69;4968077;28;20038;-65
2022/09/03 11:57:27;;;;;;;1.92;1.20;;;;;;;29.27;38.03;98344.31;4965948;28;20026;-65
2022/09/03 11:59:53;;;;;;;2.55;0.98;;;;;;;28.65;38.75;98344.97;4971505;28;20092;-65
2022/09/03 12:02:28;;;;;;;1.98;1.38;;;;;;;28.10;39.74;98352.13;4972681;28;20109;-65